createdAt,value
2018-07-23T00:01:01.287Z,81.59
2018-07-23T00:03:29.274Z,81.99
2018-07-23T00:05:56.986Z,83.04
2018-07-23T00:08:24.666Z,83.32
2018-07-23T00:10:52.380Z,82.34
2018-07-23T00:13:20.118Z,83.35
2018-07-23T00:15:47.830Z,83.50
2018-07-23T00:18:15.590Z,83.58
2018-07-23T00:20:43.377Z,82.91
2018-07-23T00:23:11.093Z,83.22
2018-07-23T00:25:38.774Z,83.06
2018-07-23T00:28:06.466Z,83.20
2018-07-23T00:30:34.166Z,83.36
2018-07-23T00:33:01.836Z,82.58
2018-07-23T00:35:29.518Z,82.86
2018-07-23T00:37:57.194Z,82.13
2018-07-23T00:40:25.201Z,81.79
2018-07-23T00:42:52.901Z,81.52
2018-07-23T00:45:20.562Z,81.23
2018-07-23T00:47:48.300Z,81.42
2018-07-23T00:50:15.980Z,81.51
2018-07-23T00:52:43.657Z,82.01
2018-07-23T00:55:11.330Z,82.60
2018-07-23T00:57:39.018Z,82.78
2018-07-23T01:00:06.708Z,82.34
2018-07-23T01:02:34.398Z,83.17
2018-07-23T01:05:02.080Z,83.49
2018-07-23T01:07:29.994Z,83.43
2018-07-23T01:09:57.674Z,83.08
2018-07-23T01:12:29.161Z,83.97
2018-07-23T01:14:56.989Z,84.47
2018-07-23T01:17:24.666Z,84.44
2018-07-23T01:19:53.818Z,84.21
2018-07-23T01:22:22.394Z,84.23
2018-07-23T01:24:50.070Z,84.60
2018-07-23T01:27:17.924Z,84.50
2018-07-23T01:29:45.597Z,84.20
2018-07-23T01:32:13.336Z,84.21
2018-07-23T01:34:41.066Z,83.66
2018-07-23T01:37:08.743Z,82.82
2018-07-23T01:39:36.438Z,83.28
2018-07-23T01:42:04.519Z,83.19
2018-07-23T01:44:32.493Z,83.79
2018-07-23T01:47:00.178Z,83.53
2018-07-23T01:49:27.900Z,83.90
2018-07-23T01:51:55.600Z,83.78
2018-07-23T01:54:23.260Z,82.94
2018-07-23T01:56:50.919Z,83.29
2018-07-23T01:59:18.855Z,83.37
2018-07-23T02:01:46.507Z,82.44
2018-07-23T02:04:14.249Z,83.03
2018-07-23T02:06:41.928Z,83.94
2018-07-23T02:09:11.450Z,83.51
2018-07-23T02:11:39.112Z,84.08
2018-07-23T02:14:07.291Z,84.00
2018-07-23T02:16:34.965Z,82.84
2018-07-23T02:19:02.727Z,83.11
2018-07-23T02:21:30.387Z,83.46
2018-07-23T02:23:58.079Z,83.12
2018-07-23T02:26:25.738Z,82.80
2018-07-23T02:28:53.413Z,82.67
2018-07-23T02:31:21.098Z,83.47
2018-07-23T02:33:49.301Z,82.26
2018-07-23T02:36:17.038Z,82.85
2018-07-23T02:38:44.754Z,83.47
2018-07-23T02:41:12.442Z,82.89
2018-07-23T02:43:40.139Z,82.79
2018-07-23T02:46:07.791Z,82.21
2018-07-23T02:48:35.470Z,82.65
2018-07-23T02:51:03.166Z,82.91
2018-07-23T02:53:30.816Z,82.71
2018-07-23T02:55:58.490Z,83.19
2018-07-23T02:58:26.142Z,83.75
2018-07-23T03:00:53.839Z,84.02
2018-07-23T03:03:21.491Z,83.92
2018-07-23T03:05:49.179Z,84.10
2018-07-23T03:08:16.894Z,83.87
2018-07-23T03:10:44.532Z,84.26
2018-07-23T03:13:12.222Z,84.27
2018-07-23T03:15:39.919Z,84.18
2018-07-23T03:18:07.666Z,83.93
2018-07-23T03:20:35.349Z,84.31
2018-07-23T03:23:03.065Z,84.06
2018-07-23T03:25:30.842Z,84.02
2018-07-23T03:27:58.511Z,84.24
2018-07-23T03:30:26.226Z,83.85
2018-07-23T03:32:53.905Z,84.18
2018-07-23T03:35:21.595Z,83.72
2018-07-23T03:37:49.254Z,83.17
2018-07-23T03:40:17.089Z,83.66
2018-07-23T03:42:44.803Z,83.98
2018-07-23T03:45:12.503Z,83.78
2018-07-23T03:47:40.182Z,83.74
2018-07-23T03:50:07.893Z,84.06
2018-07-23T03:52:35.610Z,84.32
2018-07-23T03:55:03.363Z,84.73
2018-07-23T03:57:31.032Z,84.42
2018-07-23T03:59:58.718Z,84.64
2018-07-23T04:02:26.438Z,84.29
2018-07-23T04:04:54.569Z,84.62
2018-07-23T04:07:22.215Z,84.26
2018-07-23T04:09:49.878Z,83.90
2018-07-23T04:12:17.540Z,82.50
2018-07-23T04:14:45.243Z,82.57
2018-07-23T04:17:12.953Z,83.36
2018-07-23T04:19:40.635Z,83.81
2018-07-23T04:22:08.329Z,83.41
2018-07-23T04:24:36.011Z,84.27
2018-07-23T04:27:03.694Z,84.66
2018-07-23T04:29:31.398Z,84.46
2018-07-23T04:31:59.083Z,84.78
2018-07-23T04:34:26.767Z,84.84
2018-07-23T04:36:54.455Z,83.64
2018-07-23T04:39:22.158Z,82.46
2018-07-23T04:41:49.869Z,82.52
2018-07-23T04:44:17.531Z,83.06
2018-07-23T04:46:45.241Z,83.46
2018-07-23T04:49:12.977Z,83.65
2018-07-23T04:51:40.649Z,84.34
2018-07-23T04:54:08.405Z,84.29
2018-07-23T04:56:36.155Z,84.43
2018-07-23T04:59:03.862Z,84.58
2018-07-23T05:01:31.618Z,84.36
2018-07-23T05:03:59.309Z,84.80
2018-07-23T05:06:27.018Z,84.26
2018-07-23T05:08:54.714Z,83.99
2018-07-23T05:11:22.473Z,84.05
2018-07-23T05:13:50.142Z,83.62
2018-07-23T05:16:17.819Z,83.71
2018-07-23T05:18:45.518Z,83.93
2018-07-23T05:21:13.174Z,82.77
2018-07-23T05:23:40.847Z,82.76
2018-07-23T05:26:08.542Z,82.76
2018-07-23T05:28:36.246Z,82.96
2018-07-23T05:31:04.280Z,82.61
2018-07-23T05:33:31.958Z,82.36
2018-07-23T05:35:59.631Z,82.74
2018-07-23T05:38:27.293Z,82.90
2018-07-23T05:40:55.047Z,83.16
2018-07-23T05:43:22.714Z,83.16
2018-07-23T05:45:50.425Z,82.72
2018-07-23T05:48:18.082Z,82.90
2018-07-23T05:50:46.030Z,83.10
2018-07-23T05:53:13.694Z,82.64
2018-07-23T05:55:41.353Z,83.04
2018-07-23T05:58:09.069Z,83.82
2018-07-23T06:00:36.741Z,84.13
2018-07-23T06:03:04.618Z,83.53
2018-07-23T06:05:32.293Z,83.85
2018-07-23T06:07:59.975Z,83.22
2018-07-23T06:10:27.663Z,83.22
2018-07-23T06:12:55.356Z,83.55
2018-07-23T06:15:23.007Z,83.36
2018-07-23T06:17:50.764Z,82.99
2018-07-23T06:20:18.398Z,83.03
2018-07-23T06:22:46.070Z,82.46
2018-07-23T06:25:13.761Z,82.69
2018-07-23T06:27:41.455Z,82.61
2018-07-23T06:30:09.666Z,82.46
2018-07-23T06:32:37.337Z,82.10
2018-07-23T06:35:05.143Z,81.03
2018-07-23T06:37:33.236Z,80.84
2018-07-23T06:40:00.901Z,79.90
2018-07-23T06:42:28.616Z,80.13
2018-07-23T06:44:56.310Z,79.82
2018-07-23T06:47:28.345Z,80.39
2018-07-23T06:49:56.442Z,79.26
2018-07-23T06:52:24.378Z,79.60
2018-07-23T06:54:52.222Z,79.07
2018-07-23T06:57:19.925Z,78.30
2018-07-23T06:59:47.619Z,78.66
2018-07-23T07:02:15.354Z,77.96
2018-07-23T07:04:43.034Z,77.47
2018-07-23T07:07:10.730Z,76.64
2018-07-23T07:09:38.638Z,76.28
2018-07-23T07:12:06.358Z,76.69
2018-07-23T07:14:34.023Z,76.67
2018-07-23T07:17:01.686Z,76.15
2018-07-23T07:19:29.395Z,76.39
2018-07-23T07:21:57.095Z,76.04
2018-07-23T07:24:24.810Z,76.48
2018-07-23T07:26:52.463Z,76.72
2018-07-23T07:29:20.423Z,76.58
2018-07-23T07:31:48.087Z,76.42
2018-07-23T07:34:15.939Z,77.21
2018-07-23T07:36:43.658Z,77.14
2018-07-23T07:39:12.618Z,77.66
2018-07-23T07:41:40.806Z,76.73
2018-07-23T07:44:09.079Z,76.78
2018-07-23T07:46:37.781Z,76.52
2018-07-23T07:49:05.712Z,76.23
2018-07-23T07:51:33.470Z,76.92
2018-07-23T07:54:01.163Z,76.80
2018-07-23T07:56:28.859Z,76.72
2018-07-23T07:58:57.113Z,76.74
2018-07-23T08:01:24.817Z,75.97
2018-07-23T08:03:52.518Z,75.02
2018-07-23T08:06:20.179Z,73.90
2018-07-23T08:08:47.925Z,73.03
2018-07-23T08:11:15.606Z,72.46
2018-07-23T08:13:43.454Z,70.92
2018-07-23T08:16:11.294Z,70.25
2018-07-23T08:18:38.982Z,70.02
2018-07-23T08:21:06.843Z,69.29
2018-07-23T08:23:34.643Z,67.93
2018-07-23T08:26:02.607Z,67.84
2018-07-23T08:28:30.298Z,66.40
2018-07-23T08:30:57.976Z,65.61
2018-07-23T08:33:25.746Z,64.88
2018-07-23T08:35:53.449Z,65.40
2018-07-23T08:38:21.222Z,66.59
2018-07-23T08:40:48.890Z,66.35
2018-07-23T08:43:16.931Z,66.44
2018-07-23T08:45:44.688Z,66.53
2018-07-23T08:48:12.399Z,66.10
2018-07-23T08:50:40.154Z,63.84
2018-07-23T08:53:07.891Z,60.71
2018-07-23T08:55:35.613Z,58.03
2018-07-23T08:58:03.312Z,55.47
2018-07-23T09:00:30.982Z,55.70
2018-07-23T09:02:58.689Z,57.53
2018-07-23T09:05:26.430Z,58.38
2018-07-23T09:07:54.107Z,58.86
2018-07-23T09:10:21.797Z,60.52
2018-07-23T09:12:49.801Z,60.97
2018-07-23T09:15:17.538Z,60.91
2018-07-23T09:17:45.259Z,61.99
2018-07-23T09:20:12.978Z,60.57
2018-07-23T09:22:40.670Z,61.42
2018-07-23T09:25:08.363Z,62.94
2018-07-23T09:27:36.068Z,63.52
2018-07-23T09:30:04.415Z,62.90
2018-07-23T09:32:32.094Z,63.51
2018-07-23T09:34:59.781Z,61.37
2018-07-23T09:37:27.545Z,60.35
2018-07-23T09:39:55.221Z,62.79
2018-07-23T09:42:23.777Z,63.38
2018-07-23T09:44:51.453Z,62.78
2018-07-23T09:47:19.129Z,62.21
2018-07-23T09:49:46.821Z,62.56
2018-07-23T09:52:14.518Z,61.92
2018-07-23T09:54:42.350Z,62.67
2018-07-23T09:57:10.041Z,62.74
2018-07-23T09:59:37.727Z,62.19
2018-07-23T10:02:05.492Z,61.67
2018-07-23T10:04:33.222Z,61.34
2018-07-23T10:07:00.927Z,61.93
2018-07-23T10:09:28.604Z,61.18
2018-07-23T10:11:56.304Z,61.22
2018-07-23T10:14:23.955Z,61.71
2018-07-23T10:16:51.626Z,62.23
2018-07-23T10:19:19.315Z,61.65
2018-07-23T10:21:46.974Z,62.40
2018-07-23T10:24:14.660Z,62.36
2018-07-23T10:26:42.367Z,62.02
2018-07-23T10:29:10.050Z,62.12
2018-07-23T10:31:37.756Z,61.50
2018-07-23T10:34:05.549Z,60.78
2018-07-23T10:36:33.242Z,60.76
2018-07-23T10:39:01.044Z,60.55
2018-07-23T10:41:28.747Z,59.13
2018-07-23T10:43:56.417Z,58.82
2018-07-23T10:46:24.137Z,59.65
2018-07-23T10:48:51.806Z,58.96
2018-07-23T10:51:19.509Z,57.38
2018-07-23T10:53:47.207Z,57.15
2018-07-23T10:56:14.954Z,56.02
2018-07-23T10:58:42.933Z,53.43
2018-07-23T11:01:10.652Z,52.45
2018-07-23T11:03:38.319Z,53.07
2018-07-23T11:06:06.184Z,53.24
2018-07-23T11:08:33.883Z,55.31
2018-07-23T11:11:01.584Z,54.07
2018-07-23T11:13:29.336Z,54.33
2018-07-23T11:15:57.023Z,56.50
2018-07-23T11:18:24.786Z,56.96
2018-07-23T11:20:52.500Z,57.17
2018-07-23T11:23:20.259Z,57.52
2018-07-23T11:25:47.985Z,57.66
2018-07-23T11:28:15.690Z,57.38
2018-07-23T11:30:43.405Z,56.92
2018-07-23T11:33:11.106Z,57.61
2018-07-23T11:35:38.902Z,57.17
2018-07-23T11:38:06.606Z,58.32
2018-07-23T11:40:34.369Z,59.76
2018-07-23T11:43:02.061Z,58.68
2018-07-23T11:45:30.330Z,61.01
2018-07-23T11:47:58.058Z,61.11
2018-07-23T11:50:25.819Z,62.17
2018-07-23T11:52:54.545Z,60.88
2018-07-23T11:55:22.197Z,60.84
2018-07-23T11:57:49.934Z,61.53
2018-07-23T12:00:17.670Z,61.37
2018-07-23T12:02:45.618Z,62.11
2018-07-23T12:05:13.434Z,60.74
2018-07-23T12:07:41.143Z,59.43
2018-07-23T12:10:08.939Z,58.50
2018-07-23T12:12:36.600Z,55.60
2018-07-23T12:15:04.323Z,55.15
2018-07-23T12:17:32.174Z,50.96
2018-07-23T12:19:59.843Z,53.52
2018-07-23T12:22:27.514Z,54.76
2018-07-23T12:24:55.335Z,56.16
2018-07-23T12:27:23.114Z,54.13
2018-07-23T12:29:50.835Z,51.21
2018-07-23T12:32:18.739Z,50.92
2018-07-23T12:34:46.525Z,50.13
2018-07-23T12:37:14.233Z,48.24
2018-07-23T12:39:42.408Z,48.33
2018-07-23T12:42:10.487Z,48.41
2018-07-23T12:44:38.559Z,46.20
2018-07-23T12:47:07.353Z,48.16
2018-07-23T12:49:35.000Z,47.60
2018-07-23T12:52:02.710Z,44.51
2018-07-23T12:54:30.429Z,45.79
2018-07-23T12:56:58.154Z,46.09
2018-07-23T12:59:25.866Z,47.67
2018-07-23T13:01:53.641Z,48.15
2018-07-23T13:04:21.318Z,49.40
2018-07-23T13:06:49.049Z,48.40
2018-07-23T13:09:16.771Z,46.68
2018-07-23T13:11:45.023Z,48.33
2018-07-23T13:14:12.749Z,47.45
2018-07-23T13:16:40.439Z,46.80
2018-07-23T13:19:08.204Z,46.19
2018-07-23T13:21:35.867Z,45.69
2018-07-23T13:24:03.594Z,45.95
2018-07-23T13:26:31.318Z,43.61
2018-07-23T13:28:58.999Z,45.24
2018-07-23T13:31:26.686Z,48.74
2018-07-23T13:33:54.374Z,49.43
2018-07-23T13:36:22.082Z,49.28
2018-07-23T13:38:49.852Z,49.82
2018-07-23T13:41:17.670Z,49.17
2018-07-23T13:43:45.884Z,48.99
2018-07-23T13:46:13.889Z,48.25
2018-07-23T13:48:41.595Z,47.24
2018-07-23T13:51:09.259Z,47.99
2018-07-23T13:53:36.962Z,48.29
2018-07-23T13:56:04.789Z,48.02
2018-07-23T13:58:32.481Z,47.56
2018-07-23T14:01:00.175Z,47.91
2018-07-23T14:03:27.886Z,47.97
2018-07-23T14:05:55.598Z,48.00
2018-07-23T14:08:23.360Z,47.91
2018-07-23T14:10:51.391Z,47.38
2018-07-23T14:13:19.101Z,47.73
2018-07-23T14:15:46.775Z,46.38
2018-07-23T14:18:14.555Z,46.61
2018-07-23T14:20:42.289Z,47.69
2018-07-23T14:23:09.990Z,46.75
2018-07-23T14:25:37.718Z,47.83
2018-07-23T14:28:05.386Z,47.77
2018-07-23T14:30:33.096Z,47.88
2018-07-23T14:33:00.877Z,46.66
2018-07-23T14:35:29.658Z,47.33
2018-07-23T14:37:57.470Z,46.99
2018-07-23T14:40:25.168Z,46.58
2018-07-23T14:42:52.877Z,46.29
2018-07-23T14:45:20.990Z,46.44
2018-07-23T14:47:48.675Z,45.82
2018-07-23T14:50:16.377Z,45.37
2018-07-23T14:52:44.158Z,47.02
2018-07-23T14:55:11.881Z,44.93
2018-07-23T14:57:39.752Z,46.47
2018-07-23T15:00:07.513Z,44.91
2018-07-23T15:02:35.245Z,44.84
2018-07-23T15:05:03.079Z,45.79
2018-07-23T15:07:30.886Z,45.76
2018-07-23T15:09:58.607Z,45.44
2018-07-23T15:12:26.394Z,46.13
2018-07-23T15:14:54.149Z,45.32
2018-07-23T15:17:21.891Z,43.71
2018-07-23T15:19:50.499Z,43.58
2018-07-23T15:22:18.290Z,42.20
2018-07-23T15:24:45.974Z,43.30
2018-07-23T15:27:14.674Z,43.48
2018-07-23T15:29:42.408Z,44.16
2018-07-23T15:32:10.182Z,41.38
2018-07-23T15:34:37.983Z,41.22
2018-07-23T15:37:05.707Z,43.41
2018-07-23T15:39:33.681Z,43.14
2018-07-23T15:42:01.455Z,43.64
2018-07-23T15:44:29.531Z,43.56
2018-07-23T15:46:57.005Z,43.41
2018-07-23T15:49:25.646Z,44.93
2018-07-23T15:51:53.434Z,45.49
2018-07-23T15:54:21.154Z,46.24
2018-07-23T15:56:48.870Z,48.34
2018-07-23T15:59:16.570Z,47.81
2018-07-23T16:01:44.295Z,47.95
2018-07-23T16:04:11.996Z,48.01
2018-07-23T16:06:39.704Z,47.83
2018-07-23T16:09:08.691Z,46.65
2018-07-23T16:11:36.419Z,47.06
2018-07-23T16:14:04.366Z,46.49
2018-07-23T16:16:32.088Z,46.24
2018-07-23T16:18:59.877Z,47.38
2018-07-23T16:21:27.912Z,46.93
2018-07-23T16:23:55.635Z,47.13
2018-07-23T16:26:23.410Z,46.74
2018-07-23T16:28:51.092Z,47.47
2018-07-23T16:31:19.083Z,47.00
2018-07-23T16:33:46.917Z,47.48
2018-07-23T16:36:14.707Z,45.84
2018-07-23T16:38:42.440Z,43.97
2018-07-23T16:41:10.231Z,46.07
2018-07-23T16:43:37.986Z,45.14
2018-07-23T16:46:05.678Z,44.64
2018-07-23T16:48:33.442Z,45.06
2018-07-23T16:51:01.260Z,44.71
2018-07-23T16:53:28.977Z,45.05
2018-07-23T16:55:56.761Z,44.80
2018-07-23T16:58:24.511Z,44.74
2018-07-23T17:00:52.251Z,45.64
2018-07-23T17:03:20.181Z,45.28
2018-07-23T17:05:47.907Z,47.19
2018-07-23T17:08:16.411Z,47.93
2018-07-23T17:10:44.121Z,47.96
2018-07-23T17:13:11.994Z,46.25
2018-07-23T17:15:42.587Z,47.12
2018-07-23T17:18:10.665Z,47.18
2018-07-23T17:20:38.248Z,47.83
2018-07-23T17:23:06.075Z,48.11
2018-07-23T17:25:33.760Z,48.15
2018-07-23T17:28:01.502Z,48.73
2018-07-23T17:30:29.190Z,48.41
2018-07-23T17:32:56.935Z,49.27
2018-07-23T17:35:24.693Z,49.88
2018-07-23T17:37:52.432Z,49.57
2018-07-23T17:40:20.163Z,48.91
2018-07-23T17:42:47.998Z,49.54
2018-07-23T17:45:15.870Z,48.89
2018-07-23T17:47:43.536Z,49.13
2018-07-23T17:50:11.272Z,49.92
2018-07-23T17:52:38.993Z,49.37
2018-07-23T17:55:06.802Z,49.48
2018-07-23T17:57:34.547Z,50.24
2018-07-23T18:00:02.333Z,49.90
2018-07-23T18:02:30.084Z,49.81
2018-07-23T18:04:57.802Z,49.62
2018-07-23T18:07:25.553Z,50.14
2018-07-23T18:09:53.328Z,50.66
2018-07-23T18:12:21.037Z,50.46
2018-07-23T18:14:48.774Z,50.16
2018-07-23T18:17:16.479Z,49.66
2018-07-23T18:19:44.163Z,50.69
2018-07-23T18:22:11.930Z,50.65
2018-07-23T18:24:39.662Z,50.29
2018-07-23T18:27:07.591Z,51.27
2018-07-23T18:29:35.337Z,50.83
2018-07-23T18:32:03.140Z,50.68
2018-07-23T18:34:30.854Z,50.94
2018-07-23T18:36:58.603Z,51.06
2018-07-23T18:39:26.308Z,50.72
2018-07-23T18:41:54.036Z,51.08
2018-07-23T18:44:21.758Z,50.88
2018-07-23T18:46:49.505Z,51.21
2018-07-23T18:49:24.321Z,51.20
2018-07-23T18:51:52.882Z,50.65
2018-07-23T18:54:21.707Z,51.19
2018-07-23T18:56:51.026Z,51.96
2018-07-23T18:59:18.747Z,52.91
2018-07-23T19:01:47.399Z,53.46
2018-07-23T19:04:15.258Z,54.25
2018-07-23T19:06:42.994Z,56.06
2018-07-23T19:09:12.838Z,56.43
2018-07-23T19:11:42.674Z,57.32
2018-07-23T19:14:10.717Z,57.99
2018-07-23T19:16:39.077Z,57.51
2018-07-23T19:19:06.830Z,58.49
2018-07-23T19:21:34.574Z,58.89
2018-07-23T19:24:02.338Z,58.97
2018-07-23T19:26:30.546Z,58.63
2018-07-23T19:28:58.327Z,58.93
2018-07-23T19:31:27.109Z,58.59
2018-07-23T19:33:55.217Z,59.08
2018-07-23T19:36:22.936Z,59.91
2018-07-23T19:38:50.907Z,60.44
2018-07-23T19:41:18.690Z,61.23
2018-07-23T19:43:46.379Z,61.11
2018-07-23T19:46:14.110Z,61.39
2018-07-23T19:48:41.826Z,61.76
2018-07-23T19:51:10.495Z,62.65
2018-07-23T19:53:38.593Z,62.48
2018-07-23T19:56:06.873Z,63.28
2018-07-23T19:58:34.627Z,63.51
2018-07-23T20:01:02.494Z,63.51
2018-07-23T20:03:30.249Z,63.29
2018-07-23T20:05:58.064Z,62.87
2018-07-23T20:08:25.867Z,62.49
2018-07-23T20:10:54.396Z,62.77
2018-07-23T20:13:22.564Z,62.49
2018-07-23T20:15:50.281Z,63.11
2018-07-23T20:18:17.969Z,63.27
2018-07-23T20:20:45.998Z,63.77
2018-07-23T20:23:13.711Z,63.87
2018-07-23T20:25:41.487Z,64.98
2018-07-23T20:28:09.184Z,64.25
2018-07-23T20:30:36.887Z,64.81
2018-07-23T20:33:04.800Z,64.48
2018-07-23T20:35:32.619Z,65.04
2018-07-23T20:38:00.660Z,65.71
2018-07-23T20:40:28.368Z,65.93
2018-07-23T20:42:57.056Z,65.59
2018-07-23T20:45:24.954Z,65.89
2018-07-23T20:47:52.737Z,66.52
2018-07-23T20:50:20.442Z,66.63
2018-07-23T20:52:48.490Z,66.01
2018-07-23T20:55:16.168Z,65.90
2018-07-23T20:57:44.152Z,66.21
2018-07-23T21:00:11.855Z,66.63
2018-07-23T21:02:39.618Z,66.54
2018-07-23T21:05:07.349Z,66.30
2018-07-23T21:07:35.035Z,67.37
2018-07-23T21:10:02.828Z,67.01
2018-07-23T21:12:30.506Z,67.69
2018-07-23T21:14:58.315Z,68.28
2018-07-23T21:17:25.947Z,68.40
2018-07-23T21:19:53.661Z,68.40
2018-07-23T21:22:21.413Z,68.93
2018-07-23T21:24:49.106Z,68.98
2018-07-23T21:27:16.830Z,69.27
2018-07-23T21:29:44.553Z,68.98
2018-07-23T21:32:12.269Z,69.62
2018-07-23T21:34:39.985Z,68.67
2018-07-23T21:37:07.709Z,68.28
2018-07-23T21:39:35.507Z,67.91
2018-07-23T21:42:03.183Z,68.10
2018-07-23T21:44:30.830Z,68.71
2018-07-23T21:46:58.639Z,68.18
2018-07-23T21:49:26.377Z,68.88
2018-07-23T21:51:54.059Z,69.23
2018-07-23T21:54:21.764Z,69.53
2018-07-23T21:56:49.507Z,69.27
2018-07-23T21:59:17.173Z,69.68
2018-07-23T22:01:44.937Z,68.96
2018-07-23T22:04:12.719Z,69.46
2018-07-23T22:06:40.774Z,69.59
2018-07-23T22:09:08.456Z,69.91
2018-07-23T22:11:36.577Z,69.00
2018-07-23T22:14:04.925Z,69.68
2018-07-23T22:16:32.675Z,70.09
2018-07-23T22:19:00.389Z,69.37
2018-07-23T22:21:28.171Z,69.42
2018-07-23T22:23:55.846Z,69.49
2018-07-23T22:26:23.574Z,69.07
2018-07-23T22:28:51.320Z,69.05
2018-07-23T22:31:19.105Z,68.20
2018-07-23T22:33:46.963Z,68.87
2018-07-23T22:36:14.646Z,68.56
2018-07-23T22:38:42.463Z,69.06
2018-07-23T22:41:10.157Z,68.17
2018-07-23T22:43:37.870Z,68.63
2018-07-23T22:46:05.497Z,69.61
2018-07-23T22:48:33.275Z,69.98
2018-07-23T22:51:00.975Z,69.27
2018-07-23T22:53:28.722Z,68.87
2018-07-23T22:55:56.450Z,68.84
2018-07-23T22:58:24.232Z,69.53
2018-07-23T23:00:52.010Z,69.36
2018-07-23T23:03:19.780Z,69.84
2018-07-23T23:05:47.499Z,69.28
2018-07-23T23:08:15.389Z,69.21
2018-07-23T23:10:43.126Z,68.91
2018-07-23T23:13:10.822Z,69.19
2018-07-23T23:15:38.926Z,69.52
2018-07-23T23:18:06.650Z,69.49
2018-07-23T23:20:34.305Z,70.10
2018-07-23T23:23:02.052Z,69.43
2018-07-23T23:25:29.747Z,69.07
2018-07-23T23:27:57.450Z,69.49
2018-07-23T23:30:25.174Z,69.80
2018-07-23T23:32:52.871Z,70.66
2018-07-23T23:35:20.580Z,70.01
2018-07-23T23:37:48.295Z,70.75
2018-07-23T23:40:16.354Z,71.18
2018-07-23T23:42:44.051Z,70.48
2018-07-23T23:45:12.746Z,70.55
2018-07-23T23:47:40.499Z,70.79
2018-07-23T23:50:08.680Z,70.49
2018-07-23T23:52:37.015Z,70.32
2018-07-23T23:55:04.730Z,70.33
2018-07-23T23:57:33.094Z,70.39
